createdAt,value
2018-03-16T00:00:59.944Z,6.90
2018-03-16T00:03:27.415Z,6.90
2018-03-16T00:05:54.878Z,6.90
2018-03-16T00:08:22.360Z,6.90
2018-03-16T00:10:50.582Z,6.80
2018-03-16T00:13:18.039Z,6.90
2018-03-16T00:15:45.510Z,6.80
2018-03-16T00:18:12.985Z,6.90
2018-03-16T00:20:40.447Z,6.80
2018-03-16T00:23:08.711Z,6.90
2018-03-16T00:25:36.231Z,6.90
2018-03-16T00:28:04.410Z,6.90
2018-03-16T00:30:32.106Z,6.90
2018-03-16T00:32:59.563Z,6.90
2018-03-16T00:35:27.789Z,6.90
2018-03-16T00:37:55.286Z,6.90
2018-03-16T00:40:22.755Z,6.90
2018-03-16T00:42:51.003Z,6.90
2018-03-16T00:45:18.481Z,6.90
2018-03-16T00:47:46.712Z,6.90
2018-03-16T00:50:14.193Z,6.90
2018-03-16T00:52:41.667Z,6.90
2018-03-16T00:55:09.131Z,6.90
2018-03-16T00:57:37.375Z,6.80
2018-03-16T01:00:04.864Z,6.80
2018-03-16T01:02:33.098Z,6.90
2018-03-16T01:05:00.566Z,6.90
2018-03-16T01:07:28.051Z,6.80
2018-03-16T01:09:56.286Z,6.80
2018-03-16T01:12:23.746Z,6.80
2018-03-16T01:14:51.241Z,6.80
2018-03-16T01:17:19.466Z,6.80
2018-03-16T01:19:46.939Z,6.70
2018-03-16T01:22:14.419Z,6.70
2018-03-16T01:24:41.879Z,6.70
2018-03-16T01:27:09.342Z,6.70
2018-03-16T01:29:37.585Z,6.70
2018-03-16T01:32:05.054Z,6.70
2018-03-16T01:34:34.046Z,6.70
2018-03-16T01:37:03.026Z,6.70
2018-03-16T01:39:30.792Z,6.80
2018-03-16T01:41:58.250Z,6.80
2018-03-16T01:44:25.718Z,6.70
2018-03-16T01:46:53.372Z,6.70
2018-03-16T01:49:21.603Z,6.60
2018-03-16T01:51:49.050Z,6.60
2018-03-16T01:54:16.775Z,6.70
2018-03-16T01:56:45.046Z,6.70
2018-03-16T01:59:12.505Z,6.70
2018-03-16T02:01:40.070Z,6.80
2018-03-16T02:04:08.291Z,6.70
2018-03-16T02:06:35.761Z,6.70
2018-03-16T02:09:03.255Z,6.70
2018-03-16T02:11:33.278Z,6.60
2018-03-16T02:14:01.510Z,6.60
2018-03-16T02:16:29.041Z,6.60
2018-03-16T02:18:56.511Z,6.60
2018-03-16T02:21:23.994Z,6.60
2018-03-16T02:23:54.249Z,6.60
2018-03-16T02:26:22.464Z,6.60
2018-03-16T02:28:49.954Z,6.60
2018-03-16T02:31:17.418Z,6.60
2018-03-16T02:33:44.897Z,6.60
2018-03-16T02:36:13.151Z,6.60
2018-03-16T02:38:40.618Z,6.60
2018-03-16T02:41:08.858Z,6.50
2018-03-16T02:43:36.438Z,6.50
2018-03-16T02:46:03.898Z,6.40
2018-03-16T02:48:31.354Z,6.40
2018-03-16T02:51:00.348Z,6.30
2018-03-16T02:53:27.811Z,6.30
2018-03-16T02:55:55.271Z,6.30
2018-03-16T02:58:23.526Z,6.30
2018-03-16T03:00:51.004Z,6.30
2018-03-16T03:03:18.463Z,6.30
2018-03-16T03:05:46.711Z,6.40
2018-03-16T03:08:14.181Z,6.40
2018-03-16T03:10:41.648Z,6.40
2018-03-16T03:13:09.891Z,6.40
2018-03-16T03:15:37.346Z,6.40
2018-03-16T03:18:04.852Z,6.40
2018-03-16T03:20:33.069Z,6.60
2018-03-16T03:23:00.530Z,6.60
2018-03-16T03:25:28.014Z,6.60
2018-03-16T03:27:56.249Z,6.60
2018-03-16T03:30:23.706Z,6.60
2018-03-16T03:32:51.408Z,6.60
2018-03-16T03:35:19.635Z,6.50
2018-03-16T03:37:47.106Z,6.50
2018-03-16T03:40:14.586Z,6.50
2018-03-16T03:42:42.047Z,6.40
2018-03-16T03:45:09.516Z,6.40
2018-03-16T03:47:36.986Z,6.50
2018-03-16T03:50:05.239Z,6.40
2018-03-16T03:52:33.477Z,6.50
2018-03-16T03:55:00.970Z,6.50
2018-03-16T03:57:28.426Z,6.50
2018-03-16T03:59:55.994Z,6.50
2018-03-16T04:02:24.239Z,6.50
2018-03-16T04:04:51.702Z,6.50
2018-03-16T04:07:19.266Z,6.50
2018-03-16T04:09:46.754Z,6.40
2018-03-16T04:12:14.982Z,6.40
2018-03-16T04:14:42.453Z,6.40
2018-03-16T04:17:09.931Z,6.40
2018-03-16T04:19:38.154Z,6.40
2018-03-16T04:22:05.645Z,6.40
2018-03-16T04:24:33.103Z,6.40
2018-03-16T04:27:00.566Z,6.40
2018-03-16T04:29:28.052Z,6.50
2018-03-16T04:31:55.524Z,6.50
2018-03-16T04:34:22.982Z,6.50
2018-03-16T04:36:50.467Z,6.50
2018-03-16T04:39:17.915Z,6.50
2018-03-16T04:41:45.383Z,6.50
2018-03-16T04:44:12.875Z,6.50
2018-03-16T04:46:41.096Z,6.60
2018-03-16T04:49:08.577Z,6.50
2018-03-16T04:51:36.036Z,6.60
2018-03-16T04:54:03.498Z,6.60
2018-03-16T04:56:31.154Z,6.70
2018-03-16T04:58:58.634Z,6.70
2018-03-16T05:01:26.951Z,6.70
2018-03-16T05:03:54.422Z,6.70
2018-03-16T05:06:21.902Z,6.70
2018-03-16T05:08:50.191Z,6.70
2018-03-16T05:11:18.450Z,6.60
2018-03-16T05:13:45.908Z,6.60
2018-03-16T05:16:13.391Z,6.60
2018-03-16T05:18:41.738Z,6.60
2018-03-16T05:21:09.238Z,6.60
2018-03-16T05:23:37.520Z,6.70
2018-03-16T05:26:05.257Z,6.60
2018-03-16T05:28:33.476Z,6.70
2018-03-16T05:31:00.938Z,6.70
2018-03-16T05:33:28.423Z,6.70
2018-03-16T05:35:55.894Z,6.70
2018-03-16T05:38:24.120Z,6.70
2018-03-16T05:40:51.601Z,6.70
2018-03-16T05:43:20.227Z,6.70
2018-03-16T05:45:48.474Z,6.70
2018-03-16T05:48:17.443Z,6.70
2018-03-16T05:50:44.908Z,6.70
2018-03-16T05:53:12.398Z,6.70
2018-03-16T05:55:40.631Z,6.80
2018-03-16T05:58:08.095Z,6.80
2018-03-16T06:00:35.570Z,6.80
2018-03-16T06:03:03.030Z,6.80
2018-03-16T06:05:32.001Z,6.80
2018-03-16T06:07:59.579Z,6.80
2018-03-16T06:10:27.036Z,6.90
2018-03-16T06:12:54.499Z,6.90
2018-03-16T06:15:22.748Z,6.90
2018-03-16T06:17:50.215Z,6.90
2018-03-16T06:20:17.686Z,6.90
2018-03-16T06:22:45.931Z,7.00
2018-03-16T06:25:13.388Z,6.90
2018-03-16T06:27:40.847Z,7.00
2018-03-16T06:30:08.523Z,7.00
2018-03-16T06:32:35.982Z,7.10
2018-03-16T06:35:04.958Z,7.10
2018-03-16T06:37:32.481Z,7.10
2018-03-16T06:39:59.935Z,7.20
2018-03-16T06:42:27.394Z,7.30
2018-03-16T06:44:55.218Z,7.30
2018-03-16T06:47:23.341Z,7.30
2018-03-16T06:49:50.831Z,7.30
2018-03-16T06:52:18.345Z,7.40
2018-03-16T06:54:45.826Z,7.40
2018-03-16T06:57:13.298Z,7.40
2018-03-16T06:59:40.773Z,7.50
2018-03-16T07:02:08.243Z,7.60
2018-03-16T07:04:36.491Z,7.80
2018-03-16T07:07:03.954Z,7.80
2018-03-16T07:09:31.847Z,7.90
2018-03-16T07:11:59.326Z,7.90
2018-03-16T07:14:26.792Z,8.00
2018-03-16T07:16:54.260Z,8.00
2018-03-16T07:19:21.740Z,8.00
2018-03-16T07:21:49.959Z,8.00
2018-03-16T07:24:17.434Z,8.00
2018-03-16T07:26:44.911Z,8.00
2018-03-16T07:29:12.374Z,8.00
2018-03-16T07:31:40.559Z,8.00
2018-03-16T07:34:08.044Z,7.90
2018-03-16T07:36:37.494Z,7.90
2018-03-16T07:39:07.442Z,7.80
2018-03-16T07:41:34.903Z,7.80
2018-03-16T07:44:04.450Z,7.70
2018-03-16T07:46:33.698Z,7.70
2018-03-16T07:49:01.173Z,7.70
2018-03-16T07:51:30.018Z,7.80
2018-03-16T07:53:57.486Z,7.80
2018-03-16T07:56:26.963Z,8.00
2018-03-16T07:58:54.415Z,8.10
2018-03-16T08:01:23.092Z,8.10
2018-03-16T08:03:50.554Z,8.20
2018-03-16T08:06:19.586Z,8.40
2018-03-16T08:08:48.625Z,8.30
2018-03-16T08:11:16.046Z,8.30
2018-03-16T08:13:43.511Z,8.20
2018-03-16T08:16:11.767Z,8.10
2018-03-16T08:18:39.219Z,8.10
2018-03-16T08:21:06.671Z,8.10
2018-03-16T08:23:34.164Z,8.10
2018-03-16T08:26:02.386Z,8.20
2018-03-16T08:28:29.857Z,8.20
2018-03-16T08:30:57.341Z,8.20
2018-03-16T08:33:25.574Z,8.20
2018-03-16T08:35:53.108Z,8.20
2018-03-16T08:38:20.615Z,8.30
2018-03-16T08:40:48.092Z,8.30
2018-03-16T08:43:15.685Z,8.30
2018-03-16T08:45:43.139Z,8.20
2018-03-16T08:48:10.602Z,8.20
2018-03-16T08:50:38.094Z,8.20
2018-03-16T08:53:05.564Z,8.20
2018-03-16T08:55:33.830Z,8.10
2018-03-16T08:58:01.292Z,8.10
2018-03-16T09:00:29.518Z,8.10
2018-03-16T09:02:57.022Z,8.10
2018-03-16T09:05:24.491Z,8.10
2018-03-16T09:07:52.721Z,8.10
2018-03-16T09:10:20.210Z,8.10
2018-03-16T09:12:47.711Z,8.10
2018-03-16T09:15:15.282Z,8.10
2018-03-16T09:17:42.784Z,8.20
2018-03-16T09:20:10.246Z,8.20
2018-03-16T09:22:37.714Z,8.20
2018-03-16T09:25:05.954Z,8.20
2018-03-16T09:27:33.410Z,8.20
2018-03-16T09:30:00.888Z,8.10
2018-03-16T09:32:28.370Z,8.10
2018-03-16T09:34:56.606Z,8.00
2018-03-16T09:37:24.080Z,8.00
2018-03-16T09:39:51.567Z,7.90
2018-03-16T09:42:19.032Z,7.80
2018-03-16T09:44:46.502Z,7.80
2018-03-16T09:47:14.023Z,7.80
2018-03-16T09:49:42.257Z,7.70
2018-03-16T09:52:09.747Z,7.60
2018-03-16T09:54:49.863Z,7.60
2018-03-16T09:57:17.352Z,7.60
2018-03-16T09:59:45.598Z,7.60
2018-03-16T10:02:13.059Z,7.60
2018-03-16T10:04:40.550Z,7.60
2018-03-16T10:07:08.787Z,7.50
2018-03-16T10:09:36.260Z,7.50
2018-03-16T10:12:03.807Z,7.50
2018-03-16T10:14:31.218Z,7.50
2018-03-16T10:16:58.679Z,7.40
2018-03-16T10:19:26.163Z,7.40
2018-03-16T10:21:53.637Z,7.40
2018-03-16T10:24:21.138Z,7.50
2018-03-16T10:26:48.611Z,7.50
2018-03-16T10:29:16.076Z,7.50
2018-03-16T10:31:43.547Z,7.50
2018-03-16T10:34:11.006Z,7.40
2018-03-16T10:36:38.472Z,7.50
2018-03-16T10:39:05.960Z,7.40
2018-03-16T10:41:34.187Z,7.40
2018-03-16T10:44:01.655Z,7.40
2018-03-16T10:46:29.134Z,7.40
2018-03-16T10:48:56.664Z,7.30
2018-03-16T10:51:24.865Z,7.20
2018-03-16T10:53:52.347Z,7.20
2018-03-16T10:56:20.599Z,7.20
2018-03-16T10:58:48.204Z,7.20
2018-03-16T11:01:18.687Z,7.20
2018-03-16T11:03:50.396Z,7.10
2018-03-16T11:06:23.470Z,7.10
2018-03-16T11:08:50.938Z,7.00
2018-03-16T11:11:18.411Z,7.00
2018-03-16T11:13:45.885Z,7.10
2018-03-16T11:16:13.340Z,7.20
2018-03-16T11:18:40.805Z,7.10
2018-03-16T11:21:08.287Z,7.00
2018-03-16T11:23:36.519Z,7.00
2018-03-16T11:26:03.997Z,7.00
2018-03-16T11:28:31.468Z,7.10
2018-03-16T11:30:59.702Z,7.00
2018-03-16T11:33:27.178Z,6.90
2018-03-16T11:35:54.672Z,6.90
2018-03-16T11:38:22.131Z,7.00
2018-03-16T11:40:49.602Z,7.00
2018-03-16T11:43:17.095Z,6.90
2018-03-16T11:45:44.569Z,6.80
2018-03-16T11:48:12.038Z,6.80
2018-03-16T11:50:40.293Z,6.90
2018-03-16T11:53:07.760Z,6.80
2018-03-16T11:55:35.980Z,6.90
2018-03-16T11:58:03.470Z,6.90
2018-03-16T12:00:30.954Z,6.80
2018-03-16T12:02:59.178Z,6.70
2018-03-16T12:05:26.659Z,6.70
2018-03-16T12:07:54.123Z,6.60
2018-03-16T12:10:21.577Z,6.60
2018-03-16T12:12:49.084Z,6.70
2018-03-16T12:15:16.554Z,6.60
2018-03-16T12:17:44.018Z,6.50
2018-03-16T12:20:11.549Z,6.50
2018-03-16T12:22:39.429Z,6.50
2018-03-16T12:25:06.897Z,6.60
2018-03-16T12:27:34.391Z,6.60
2018-03-16T12:30:01.863Z,6.50
2018-03-16T12:32:30.090Z,6.40
2018-03-16T12:34:57.579Z,6.40
2018-03-16T12:37:25.064Z,6.30
2018-03-16T12:39:53.307Z,6.30
2018-03-16T12:42:20.766Z,6.30
2018-03-16T12:44:48.231Z,6.20
2018-03-16T12:47:16.665Z,6.20
2018-03-16T12:49:44.131Z,6.20
2018-03-16T12:52:11.619Z,6.20
2018-03-16T12:54:39.082Z,6.20
2018-03-16T12:57:07.314Z,6.20
2018-03-16T12:59:34.797Z,6.10
2018-03-16T13:02:02.262Z,6.10
2018-03-16T13:04:29.726Z,6.10
2018-03-16T13:06:58.002Z,6.10
2018-03-16T13:09:26.258Z,6.10
2018-03-16T13:11:53.734Z,6.10
2018-03-16T13:14:21.980Z,6.10
2018-03-16T13:16:49.470Z,6.10
2018-03-16T13:19:18.653Z,6.20
2018-03-16T13:21:46.111Z,6.20
2018-03-16T13:24:14.343Z,6.20
2018-03-16T13:26:42.200Z,6.20
2018-03-16T13:29:09.678Z,6.20
2018-03-16T13:31:38.720Z,6.20
2018-03-16T13:34:06.947Z,6.20
2018-03-16T13:36:34.428Z,6.20
2018-03-16T13:39:01.899Z,6.20
2018-03-16T13:41:30.216Z,6.20
2018-03-16T13:43:58.456Z,6.30
2018-03-16T13:46:26.683Z,6.30
2018-03-16T13:48:54.164Z,6.30
2018-03-16T13:51:21.646Z,6.30
2018-03-16T13:53:49.875Z,6.30
2018-03-16T13:56:17.542Z,6.20
2018-03-16T13:58:45.018Z,6.30
2018-03-16T14:01:12.482Z,6.30
2018-03-16T14:03:40.730Z,6.20
2018-03-16T14:06:08.205Z,6.20
2018-03-16T14:08:35.672Z,6.20
2018-03-16T14:11:03.918Z,6.20
2018-03-16T14:13:31.827Z,6.10
2018-03-16T14:16:00.098Z,6.20
2018-03-16T14:18:28.375Z,6.30
2018-03-16T14:20:56.652Z,6.20
2018-03-16T14:23:24.893Z,6.20
2018-03-16T14:25:52.379Z,6.20
2018-03-16T14:28:20.611Z,6.40
2018-03-16T14:30:48.092Z,6.40
2018-03-16T14:33:15.584Z,6.40
2018-03-16T14:35:43.047Z,6.40
2018-03-16T14:38:10.510Z,6.40
2018-03-16T14:40:37.996Z,6.40
2018-03-16T14:43:05.520Z,6.30
2018-03-16T14:45:33.014Z,6.40
2018-03-16T14:48:00.466Z,6.50
2018-03-16T14:50:27.931Z,6.40
2018-03-16T14:52:55.424Z,6.30
2018-03-16T14:55:23.653Z,6.40
2018-03-16T14:57:51.124Z,6.40
2018-03-16T15:00:18.621Z,6.40
2018-03-16T15:02:46.108Z,6.20
2018-03-16T15:05:13.614Z,6.00
2018-03-16T15:07:41.079Z,6.00
2018-03-16T15:10:09.339Z,5.80
2018-03-16T15:12:36.791Z,5.70
2018-03-16T15:15:04.410Z,5.80
2018-03-16T15:17:31.914Z,5.70
2018-03-16T15:19:59.407Z,5.70
2018-03-16T15:22:26.866Z,5.60
2018-03-16T15:24:54.348Z,5.60
2018-03-16T15:27:21.827Z,5.60
2018-03-16T15:29:49.322Z,5.60
2018-03-16T15:32:16.792Z,5.50
2018-03-16T15:34:44.250Z,5.40
2018-03-16T15:37:11.730Z,5.40
2018-03-16T15:39:39.195Z,5.30
2018-03-16T15:42:07.587Z,5.20
2018-03-16T15:44:35.075Z,5.20
2018-03-16T15:47:04.837Z,5.10
2018-03-16T15:49:36.103Z,5.10
2018-03-16T15:52:04.427Z,5.10
2018-03-16T15:54:33.636Z,5.00
2018-03-16T15:57:01.363Z,5.00
2018-03-16T15:59:29.600Z,4.90
2018-03-16T16:01:58.031Z,4.90
2018-03-16T16:04:26.272Z,4.90
2018-03-16T16:06:54.668Z,4.90
2018-03-16T16:09:23.835Z,4.70
2018-03-16T16:11:51.336Z,4.70
2018-03-16T16:14:20.564Z,4.60
2018-03-16T16:16:49.507Z,4.60
2018-03-16T16:19:17.758Z,4.60
2018-03-16T16:21:46.134Z,4.50
2018-03-16T16:24:13.652Z,4.60
2018-03-16T16:26:42.320Z,4.60
2018-03-16T16:29:10.538Z,4.50
2018-03-16T16:31:38.035Z,4.50
2018-03-16T16:34:06.268Z,4.40
2018-03-16T16:36:33.746Z,4.40
2018-03-16T16:39:01.872Z,4.40
2018-03-16T16:41:29.346Z,4.40
2018-03-16T16:43:56.819Z,4.40
2018-03-16T16:46:24.311Z,4.40
2018-03-16T16:48:52.600Z,4.40
2018-03-16T16:51:20.243Z,4.30
2018-03-16T16:53:47.706Z,4.30
2018-03-16T16:56:15.954Z,4.30
2018-03-16T16:58:43.463Z,4.30
2018-03-16T17:01:10.932Z,4.20
2018-03-16T17:03:39.247Z,4.20
2018-03-16T17:06:06.750Z,4.20
2018-03-16T17:08:35.064Z,4.20
2018-03-16T17:11:03.047Z,4.10
2018-03-16T17:13:30.742Z,4.10
2018-03-16T17:15:58.210Z,4.00
2018-03-16T17:18:25.679Z,4.00
2018-03-16T17:20:53.187Z,4.00
2018-03-16T17:23:20.654Z,4.00
2018-03-16T17:25:48.567Z,3.90
2018-03-16T17:28:16.070Z,3.80
2018-03-16T17:30:44.004Z,3.80
2018-03-16T17:33:11.511Z,3.70
2018-03-16T17:35:39.904Z,3.60
2018-03-16T17:38:07.405Z,3.60
2018-03-16T17:40:34.855Z,3.60
2018-03-16T17:43:02.340Z,3.50
2018-03-16T17:45:30.042Z,3.40
2018-03-16T17:47:57.540Z,3.40
2018-03-16T17:50:25.069Z,3.30
2018-03-16T17:52:52.565Z,3.30
2018-03-16T17:55:20.084Z,3.20
2018-03-16T17:57:47.515Z,3.20
2018-03-16T18:00:15.764Z,3.20
2018-03-16T18:02:43.246Z,3.20
2018-03-16T18:05:11.486Z,3.20
2018-03-16T18:07:38.978Z,3.10
2018-03-16T18:10:07.635Z,3.10
2018-03-16T18:12:35.110Z,3.10
2018-03-16T18:15:03.367Z,3.10
2018-03-16T18:17:30.840Z,3.10
2018-03-16T18:19:59.059Z,3.10
2018-03-16T18:22:26.559Z,3.10
2018-03-16T18:24:54.790Z,3.10
2018-03-16T18:27:22.266Z,3.10
2018-03-16T18:29:49.739Z,3.10
2018-03-16T18:32:17.474Z,3.00
2018-03-16T18:34:45.167Z,3.00
2018-03-16T18:37:14.180Z,3.00
2018-03-16T18:39:41.622Z,2.90
2018-03-16T18:42:09.132Z,3.00
2018-03-16T18:44:37.371Z,2.90
2018-03-16T18:47:05.626Z,2.80
2018-03-16T18:49:33.106Z,2.80
2018-03-16T18:52:01.341Z,2.80
2018-03-16T18:54:28.806Z,2.80
2018-03-16T18:56:56.299Z,2.90
2018-03-16T18:59:24.533Z,2.80
2018-03-16T19:01:51.995Z,2.80
2018-03-16T19:04:19.491Z,2.90
2018-03-16T19:06:46.976Z,2.80
2018-03-16T19:09:14.445Z,2.80
2018-03-16T19:11:41.935Z,2.80
2018-03-16T19:14:09.412Z,2.80
2018-03-16T19:16:36.894Z,2.70
2018-03-16T19:19:04.405Z,2.70
2018-03-16T19:21:31.880Z,2.70
2018-03-16T19:24:00.119Z,2.70
2018-03-16T19:26:27.587Z,2.60
2018-03-16T19:28:55.818Z,2.60
2018-03-16T19:31:23.302Z,2.60
2018-03-16T19:33:50.781Z,2.60
2018-03-16T19:36:18.273Z,2.60
2018-03-16T19:38:45.754Z,2.70
2018-03-16T19:41:13.222Z,2.60
2018-03-16T19:43:40.687Z,2.60
2018-03-16T19:46:08.192Z,2.50
2018-03-16T19:48:35.723Z,2.40
2018-03-16T19:51:03.158Z,2.40
2018-03-16T19:53:30.639Z,2.40
2018-03-16T19:55:58.897Z,2.40
2018-03-16T19:58:26.378Z,2.40
2018-03-16T20:00:55.210Z,2.30
2018-03-16T20:03:22.662Z,2.30
2018-03-16T20:05:50.172Z,2.40
2018-03-16T20:08:17.627Z,2.40
2018-03-16T20:10:45.111Z,2.40
2018-03-16T20:13:12.615Z,2.30
2018-03-16T20:15:40.091Z,2.20
2018-03-16T20:18:09.072Z,2.20
2018-03-16T20:20:36.557Z,2.10
2018-03-16T20:23:04.807Z,2.20
2018-03-16T20:25:32.263Z,2.20
2018-03-16T20:27:59.756Z,2.20
2018-03-16T20:30:27.238Z,2.20
2018-03-16T20:32:54.724Z,2.10
2018-03-16T20:35:22.407Z,2.10
2018-03-16T20:37:49.888Z,2.10
2018-03-16T20:40:18.126Z,2.00
2018-03-16T20:42:45.800Z,2.00
2018-03-16T20:45:13.259Z,2.00
2018-03-16T20:47:40.739Z,1.90
2018-03-16T20:50:08.275Z,1.90
2018-03-16T20:52:35.741Z,1.90
2018-03-16T20:55:03.983Z,1.90
2018-03-16T20:57:31.658Z,1.90
2018-03-16T20:59:59.129Z,1.90
2018-03-16T21:02:27.359Z,1.90
2018-03-16T21:04:54.882Z,1.90
2018-03-16T21:07:22.459Z,1.90
2018-03-16T21:09:51.145Z,1.90
2018-03-16T21:12:19.580Z,1.90
2018-03-16T21:14:47.866Z,1.80
2018-03-16T21:17:16.107Z,1.80
2018-03-16T21:19:43.595Z,1.80
2018-03-16T21:22:12.706Z,1.80
2018-03-16T21:24:40.186Z,1.70
2018-03-16T21:27:07.691Z,1.80
2018-03-16T21:29:35.187Z,1.80
2018-03-16T21:32:02.655Z,1.80
2018-03-16T21:34:30.630Z,1.70
2018-03-16T21:36:58.083Z,1.70
2018-03-16T21:39:25.580Z,1.60
2018-03-16T21:41:53.206Z,1.70
2018-03-16T21:44:20.669Z,1.70
2018-03-16T21:46:48.147Z,1.60
2018-03-16T21:49:15.647Z,1.70
2018-03-16T21:51:43.871Z,1.70
2018-03-16T21:54:11.358Z,1.70
2018-03-16T21:56:40.715Z,1.70
2018-03-16T21:59:08.186Z,1.60
2018-03-16T22:01:35.664Z,1.70
2018-03-16T22:04:03.945Z,1.60
2018-03-16T22:06:31.408Z,1.60
2018-03-16T22:08:59.690Z,1.60
2018-03-16T22:11:27.279Z,1.60
2018-03-16T22:13:54.835Z,1.70
2018-03-16T22:16:22.326Z,1.60
2018-03-16T22:18:49.798Z,1.50
2018-03-16T22:21:17.279Z,1.50
2018-03-16T22:23:44.847Z,1.50
2018-03-16T22:26:12.369Z,1.50
2018-03-16T22:28:39.852Z,1.50
2018-03-16T22:31:08.108Z,1.50
2018-03-16T22:33:36.433Z,1.60
2018-03-16T22:36:03.895Z,1.50
2018-03-16T22:38:31.377Z,1.50
2018-03-16T22:40:58.842Z,1.50
2018-03-16T22:43:26.339Z,1.60
2018-03-16T22:45:53.827Z,1.60
2018-03-16T22:48:21.311Z,1.50
2018-03-16T22:50:49.018Z,1.50
2018-03-16T22:53:16.503Z,1.50
2018-03-16T22:55:43.962Z,1.50
2018-03-16T22:58:11.599Z,1.50
2018-03-16T23:00:39.054Z,1.50
2018-03-16T23:03:06.632Z,1.50
2018-03-16T23:05:34.106Z,1.50
2018-03-16T23:08:01.593Z,1.50
2018-03-16T23:10:29.832Z,1.50
2018-03-16T23:12:57.326Z,1.50
2018-03-16T23:15:25.632Z,1.40
2018-03-16T23:17:53.107Z,1.40
2018-03-16T23:20:20.599Z,1.40
2018-03-16T23:22:48.059Z,1.40
2018-03-16T23:25:15.549Z,1.30
2018-03-16T23:27:43.129Z,1.30
2018-03-16T23:30:13.120Z,1.30
2018-03-16T23:32:41.355Z,1.30
2018-03-16T23:35:08.834Z,1.30
2018-03-16T23:37:37.307Z,1.20
2018-03-16T23:40:05.543Z,1.20
2018-03-16T23:42:33.023Z,1.20
2018-03-16T23:45:00.528Z,1.10
2018-03-16T23:47:28.011Z,1.20
2018-03-16T23:49:55.477Z,1.30
2018-03-16T23:52:22.962Z,1.20
2018-03-16T23:54:51.195Z,1.10
2018-03-16T23:57:18.659Z,1.10
2018-03-16T23:59:46.154Z,1.10
